createdAt,value
2022-10-29T00:00:57.004Z,98427.81
2022-10-29T00:03:24.703Z,98458.97
2022-10-29T00:05:58.787Z,98440.78
2022-10-29T00:08:25.974Z,98452.34
2022-10-29T00:10:52.550Z,98458.06
2022-10-29T00:13:21.598Z,98455.59
2022-10-29T00:15:48.142Z,98463.38
2022-10-29T00:18:14.696Z,98447.75
2022-10-29T00:20:41.188Z,98446.31
2022-10-29T00:23:07.700Z,98451.53
2022-10-29T00:25:34.222Z,98423.44
2022-10-29T00:28:00.746Z,98432.94
2022-10-29T00:30:27.298Z,98442.66
2022-10-29T00:32:54.012Z,98430.69
2022-10-29T00:35:24.121Z,98431.34
2022-10-29T00:37:53.063Z,98437.13
2022-10-29T00:40:22.714Z,98408.69
2022-10-29T00:42:49.291Z,98425.44
2022-10-29T00:45:23.399Z,98427.28
2022-10-29T00:47:55.517Z,98406.25
2022-10-29T00:50:25.536Z,98420.72
2022-10-29T00:52:55.264Z,98419.47
2022-10-29T00:55:23.899Z,98409.72
2022-10-29T00:57:54.995Z,98415.50
2022-10-29T01:00:24.502Z,98405.81
2022-10-29T01:02:51.174Z,98401.06
2022-10-29T01:05:24.547Z,98404.34
2022-10-29T01:07:51.237Z,98394.69
2022-10-29T01:10:31.822Z,98390.16
2022-10-29T01:13:42.915Z,98403.94
2022-10-29T01:16:18.688Z,98401.06
2022-10-29T01:19:15.499Z,98385.19
2022-10-29T01:21:45.388Z,98393.44
2022-10-29T01:24:46.144Z,98389.91
2022-10-29T01:27:15.688Z,98393.06
2022-10-29T01:30:05.741Z,98379.81
2022-10-29T01:32:56.166Z,98388.66
2022-10-29T01:35:22.862Z,98384.94
2022-10-29T01:38:21.585Z,98381.03
2022-10-29T01:41:03.284Z,98382.50
2022-10-29T01:44:08.943Z,98369.31
2022-10-29T01:46:58.232Z,98371.78
2022-10-29T01:49:40.300Z,98369.53
2022-10-29T01:52:11.318Z,98373.69
2022-10-29T01:54:47.835Z,98373.47
2022-10-29T01:57:44.011Z,98345.63
2022-10-29T02:00:12.050Z,98332.00
2022-10-29T02:03:20.669Z,98358.22
2022-10-29T02:06:11.325Z,98328.75
2022-10-29T02:09:22.204Z,98345.84
2022-10-29T02:11:59.014Z,98335.50
2022-10-29T02:14:35.276Z,98337.75
2022-10-29T02:17:03.083Z,98329.06
2022-10-29T02:19:33.171Z,98326.81
2022-10-29T02:21:59.833Z,98327.41
2022-10-29T02:24:28.592Z,98291.16
2022-10-29T02:26:55.114Z,98306.81
2022-10-29T02:29:21.644Z,98324.75
2022-10-29T02:31:48.192Z,98315.88
2022-10-29T02:34:14.786Z,98295.47
2022-10-29T02:36:41.299Z,98279.38
2022-10-29T02:39:07.791Z,98311.34
2022-10-29T02:41:34.327Z,98312.97
2022-10-29T02:44:00.893Z,98280.63
2022-10-29T02:46:29.613Z,98290.72
2022-10-29T02:48:56.190Z,98277.50
2022-10-29T02:51:22.710Z,98287.22
2022-10-29T02:53:49.195Z,98281.25
2022-10-29T02:56:15.721Z,98279.81
2022-10-29T02:58:42.246Z,98292.78
2022-10-29T03:01:08.834Z,98293.84
2022-10-29T03:03:35.745Z,98277.53
2022-10-29T03:06:02.277Z,98279.16
2022-10-29T03:08:31.284Z,98262.72
2022-10-29T03:10:57.763Z,98289.25
2022-10-29T03:13:24.359Z,98279.34
2022-10-29T03:15:50.929Z,98287.41
2022-10-29T03:18:17.507Z,98281.00
2022-10-29T03:20:45.550Z,98277.69
2022-10-29T03:23:12.082Z,98272.53
2022-10-29T03:25:38.670Z,98247.41
2022-10-29T03:28:05.484Z,98259.81
2022-10-29T03:30:32.905Z,98250.31
2022-10-29T03:33:00.611Z,98268.84
2022-10-29T03:35:27.584Z,98274.00
2022-10-29T03:37:54.171Z,98272.19
2022-10-29T03:40:20.737Z,98253.84
2022-10-29T03:42:47.281Z,98271.34
2022-10-29T03:45:13.863Z,98244.31
2022-10-29T03:47:40.391Z,98246.38
2022-10-29T03:50:07.752Z,98253.59
2022-10-29T03:52:34.283Z,98266.53
2022-10-29T03:55:03.040Z,98264.88
2022-10-29T03:57:29.601Z,98243.06
2022-10-29T03:59:56.446Z,98241.44
2022-10-29T04:02:23.728Z,98273.97
2022-10-29T04:04:50.325Z,98273.81
2022-10-29T04:07:17.105Z,98276.91
2022-10-29T04:09:43.830Z,98275.69
2022-10-29T04:12:10.410Z,98244.19
2022-10-29T04:14:41.332Z,98279.16
2022-10-29T04:17:12.867Z,98280.44
2022-10-29T04:19:39.374Z,98264.19
2022-10-29T04:30:26.055Z,98292.00
2022-10-29T04:32:56.947Z,98283.78
2022-10-29T04:35:24.188Z,98292.59
2022-10-29T04:37:50.717Z,98284.78
2022-10-29T04:40:17.267Z,98273.06
2022-10-29T04:42:43.759Z,98287.66
2022-10-29T04:45:10.286Z,98287.06
2022-10-29T04:47:39.883Z,98292.81
2022-10-29T04:50:09.593Z,98269.91
2022-10-29T04:52:39.272Z,98294.41
2022-10-29T04:55:08.758Z,98265.13
2022-10-29T04:57:38.570Z,98261.19
2022-10-29T05:00:07.684Z,98286.34
2022-10-29T05:02:39.143Z,98279.94
2022-10-29T05:05:09.232Z,98288.94
2022-10-29T05:07:38.971Z,98287.47
2022-10-29T05:10:07.756Z,98290.81
2022-10-29T05:12:34.292Z,98269.53
2022-10-29T05:15:00.926Z,98280.56
2022-10-29T05:17:27.488Z,98272.91
2022-10-29T05:19:53.994Z,98261.56
2022-10-29T05:22:20.544Z,98264.28
2022-10-29T05:24:47.177Z,98281.16
2022-10-29T05:27:13.740Z,98286.13
2022-10-29T05:29:40.276Z,98256.25
2022-10-29T05:32:09.153Z,98289.00
2022-10-29T05:34:37.520Z,98295.63
2022-10-29T05:37:04.953Z,98299.97
2022-10-29T05:39:31.436Z,98281.41
2022-10-29T05:41:57.949Z,98277.88
2022-10-29T05:44:24.477Z,98281.41
2022-10-29T05:46:51.111Z,98257.13
2022-10-29T05:49:17.676Z,98280.00
2022-10-29T05:51:44.163Z,98282.91
2022-10-29T05:54:10.726Z,98287.16
2022-10-29T05:56:37.269Z,98279.94
2022-10-29T05:59:03.788Z,98250.19
2022-10-29T06:01:30.459Z,98275.28
2022-10-29T06:03:57.924Z,98292.66
2022-10-29T06:06:24.472Z,98287.91
2022-10-29T06:08:51.040Z,98292.88
2022-10-29T06:11:17.579Z,98279.34
2022-10-29T06:13:44.159Z,98265.53
2022-10-29T06:16:13.660Z,98251.94
2022-10-29T06:18:44.090Z,98259.38
2022-10-29T06:21:13.751Z,98263.78
2022-10-29T06:23:41.433Z,98247.13
2022-10-29T06:26:07.982Z,98252.50
2022-10-29T06:28:35.122Z,98275.00
2022-10-29T06:31:01.739Z,98257.50
2022-10-29T06:33:28.273Z,98263.44
2022-10-29T06:35:59.387Z,98236.88
2022-10-29T06:38:25.946Z,98265.03
2022-10-29T06:40:56.267Z,98274.31
2022-10-29T06:43:22.900Z,98266.88
2022-10-29T06:45:52.263Z,98283.84
2022-10-29T06:48:21.982Z,98275.75
2022-10-29T06:50:49.449Z,98283.84
2022-10-29T06:53:16.250Z,98270.41
2022-10-29T06:55:46.146Z,98274.94
2022-10-29T06:58:17.873Z,98285.91
2022-10-29T07:00:45.396Z,98286.09
2022-10-29T07:03:16.110Z,98279.53
2022-10-29T07:05:46.168Z,98284.44
2022-10-29T07:08:15.573Z,98271.41
2022-10-29T07:10:45.029Z,98282.09
2022-10-29T07:13:19.009Z,98294.13
2022-10-29T07:15:45.796Z,98292.69
2022-10-29T07:18:16.736Z,98272.91
2022-10-29T07:20:47.107Z,98250.84
2022-10-29T07:23:17.661Z,98273.81
2022-10-29T07:25:52.397Z,98250.53
2022-10-29T07:28:23.905Z,98294.47
2022-10-29T07:30:51.832Z,98290.75
2022-10-29T07:33:19.805Z,98296.13
2022-10-29T07:35:46.787Z,98307.28
2022-10-29T07:38:16.902Z,98297.97
2022-10-29T07:40:51.250Z,98302.56
2022-10-29T07:43:19.666Z,98291.22
2022-10-29T07:45:50.724Z,98302.91
2022-10-29T07:48:19.380Z,98303.03
2022-10-29T07:50:46.703Z,98294.38
2022-10-29T07:53:14.612Z,98297.19
2022-10-29T07:55:41.348Z,98298.66
2022-10-29T07:58:13.600Z,98281.50
2022-10-29T08:00:41.330Z,98306.00
2022-10-29T08:03:08.649Z,98308.63
2022-10-29T08:05:35.806Z,98299.47
2022-10-29T08:08:02.696Z,98273.13
2022-10-29T08:10:30.812Z,98300.31
2022-10-29T08:13:01.017Z,98283.66
2022-10-29T08:15:30.118Z,98281.88
2022-10-29T08:17:57.248Z,98300.19
2022-10-29T08:20:27.084Z,98286.22
2022-10-29T08:22:53.950Z,98292.06
2022-10-29T08:25:20.920Z,98271.13
2022-10-29T08:28:01.370Z,98280.25
2022-10-29T08:30:28.129Z,98267.13
2022-10-29T08:32:55.490Z,98280.75
2022-10-29T08:35:22.724Z,98279.09
2022-10-29T08:37:49.443Z,98289.34
2022-10-29T08:40:29.344Z,98279.72
2022-10-29T08:43:32.512Z,98282.56
2022-10-29T08:45:59.950Z,98263.56
2022-10-29T08:48:52.109Z,98286.13
2022-10-29T08:51:46.555Z,98282.63
2022-10-29T08:54:35.266Z,98273.75
2022-10-29T08:57:11.273Z,98280.38
2022-10-29T08:59:46.197Z,98265.66
2022-10-29T09:02:17.779Z,98259.34
2022-10-29T09:04:47.346Z,98260.03
2022-10-29T09:07:34.455Z,98267.19
2022-10-29T09:10:19.138Z,98279.47
2022-10-29T09:13:00.067Z,98268.06
2022-10-29T09:15:56.366Z,98252.97
2022-10-29T09:18:50.107Z,98250.69
2022-10-29T09:21:44.482Z,98267.66
2022-10-29T09:24:32.190Z,98272.25
2022-10-29T09:27:01.907Z,98268.31
2022-10-29T09:29:49.444Z,98271.84
2022-10-29T09:32:45.810Z,98253.97
2022-10-29T09:35:18.405Z,98251.78
2022-10-29T09:37:53.362Z,98264.03
2022-10-29T09:40:31.230Z,98264.88
2022-10-29T09:43:00.589Z,98274.91
2022-10-29T09:45:46.326Z,98267.84
2022-10-29T09:48:27.174Z,98269.22
2022-10-29T09:51:10.032Z,98265.06
2022-10-29T09:53:36.789Z,98273.28
2022-10-29T09:56:07.474Z,98263.75
2022-10-29T09:58:38.191Z,98264.84
2022-10-29T10:01:04.852Z,98252.53
2022-10-29T10:03:45.643Z,98260.94
2022-10-29T10:06:16.892Z,98241.19
2022-10-29T10:09:06.223Z,98258.00
2022-10-29T10:11:44.599Z,98244.34
2022-10-29T10:14:20.986Z,98246.63
2022-10-29T10:16:58.106Z,98251.41
2022-10-29T10:19:27.743Z,98255.88
2022-10-29T10:22:02.468Z,98254.22
2022-10-29T10:24:34.431Z,98247.69
2022-10-29T10:27:02.089Z,98255.94
2022-10-29T10:29:28.608Z,98248.50
2022-10-29T10:31:55.085Z,98261.56
2022-10-29T10:34:36.685Z,98247.78
2022-10-29T10:37:04.318Z,98245.06
2022-10-29T10:39:36.461Z,98247.28
2022-10-29T10:42:07.000Z,98230.16
2022-10-29T10:44:34.956Z,98241.22
2022-10-29T10:47:06.972Z,98243.38
2022-10-29T10:49:37.202Z,98235.72
2022-10-29T10:52:14.289Z,98235.75
2022-10-29T10:55:03.130Z,98234.78
2022-10-29T10:57:50.023Z,98230.50
2022-10-29T11:00:20.068Z,98234.16
2022-10-29T11:03:14.135Z,98227.63
2022-10-29T11:05:52.027Z,98218.69
2022-10-29T11:08:28.464Z,98223.56
2022-10-29T11:11:04.114Z,98221.22
2022-10-29T11:13:33.378Z,98200.41
2022-10-29T11:16:14.205Z,98208.13
2022-10-29T11:18:59.563Z,98197.38
2022-10-29T11:21:46.534Z,98167.78
2022-10-29T11:24:30.365Z,98189.09
2022-10-29T11:27:04.528Z,98184.66
2022-10-29T11:30:06.915Z,98191.06
2022-10-29T11:32:50.634Z,98187.50
2022-10-29T11:35:48.544Z,98179.28
2022-10-29T11:38:41.433Z,98175.97
2022-10-29T11:41:40.200Z,98186.22
2022-10-29T11:44:12.909Z,98195.09
2022-10-29T11:47:04.095Z,98189.91
2022-10-29T11:49:30.563Z,98185.25
2022-10-29T11:52:06.320Z,98183.91
2022-10-29T11:55:04.552Z,98190.78
2022-10-29T11:57:47.676Z,98178.31
2022-10-29T12:00:20.136Z,98183.88
2022-10-29T12:03:20.717Z,98188.78
2022-10-29T12:05:56.419Z,98185.16
2022-10-29T12:08:48.891Z,98187.84
2022-10-29T12:11:42.055Z,98177.47
2022-10-29T12:14:26.282Z,98168.19
2022-10-29T12:16:58.924Z,98170.00
2022-10-29T12:19:51.833Z,98164.41
2022-10-29T12:22:33.424Z,98165.31
2022-10-29T12:25:44.531Z,98164.66
2022-10-29T12:28:29.501Z,98157.91
2022-10-29T12:30:59.389Z,98158.81
2022-10-29T12:33:37.887Z,98148.44
2022-10-29T12:36:25.042Z,98131.44
2022-10-29T12:38:55.633Z,98151.44
2022-10-29T12:41:37.591Z,98153.84
2022-10-29T12:44:19.215Z,98144.66
2022-10-29T12:46:55.105Z,98117.44
2022-10-29T12:49:35.401Z,98128.47
2022-10-29T12:52:19.479Z,98119.59
2022-10-29T12:54:50.525Z,98108.63
2022-10-29T12:57:19.076Z,98121.34
2022-10-29T12:59:45.899Z,98116.63
2022-10-29T13:02:21.716Z,98121.97
2022-10-29T13:05:06.724Z,98124.03
2022-10-29T13:07:34.595Z,98123.69
2022-10-29T13:10:26.521Z,98124.41
2022-10-29T13:12:56.038Z,98116.59
2022-10-29T13:15:36.325Z,98119.38
2022-10-29T13:18:28.854Z,98112.84
2022-10-29T13:20:55.813Z,98103.81
2022-10-29T13:23:22.553Z,98111.53
2022-10-29T13:25:52.739Z,98107.31
2022-10-29T13:28:19.475Z,98113.31
2022-10-29T13:31:13.976Z,98091.03
2022-10-29T13:36:24.446Z,98095.81
2022-10-29T13:39:04.571Z,98095.28
2022-10-29T13:41:45.121Z,98096.44
2022-10-29T13:44:14.251Z,98093.75
2022-10-29T13:47:19.861Z,98085.84
2022-10-29T13:49:51.716Z,98089.44
2022-10-29T13:52:22.586Z,98081.88
2022-10-29T13:54:56.725Z,98084.34
2022-10-29T13:57:53.829Z,98078.66
2022-10-29T14:00:22.181Z,98072.63
2022-10-29T14:02:57.578Z,98069.91
2022-10-29T14:05:33.922Z,98079.63
2022-10-29T14:08:07.545Z,98070.34
2022-10-29T14:10:40.249Z,98074.88
2022-10-29T14:13:32.565Z,98072.09
2022-10-29T14:16:06.587Z,98064.69
2022-10-29T14:18:36.563Z,98056.09
2022-10-29T14:21:05.886Z,98076.22
2022-10-29T14:23:33.254Z,98074.34
2022-10-29T14:26:03.047Z,98048.81
2022-10-29T14:28:33.685Z,98071.72
2022-10-29T14:31:05.138Z,98067.06
2022-10-29T14:33:35.865Z,98058.75
2022-10-29T14:36:21.450Z,98057.97
2022-10-29T14:38:52.738Z,98058.75
2022-10-29T14:41:24.647Z,98028.38
2022-10-29T14:44:16.127Z,98038.97
2022-10-29T14:46:44.337Z,98027.03
2022-10-29T14:49:17.621Z,98038.47
2022-10-29T14:52:04.997Z,98045.28
2022-10-29T14:54:35.637Z,98036.59
2022-10-29T14:57:07.745Z,98033.59
2022-10-29T14:59:35.734Z,98045.28
2022-10-29T15:02:36.220Z,98045.81
2022-10-29T15:05:01.713Z,98055.63
2022-10-29T15:07:37.110Z,98051.25
2022-10-29T15:10:09.697Z,98048.81
2022-10-29T15:12:40.238Z,98059.72
2022-10-29T15:15:19.124Z,98060.81
2022-10-29T15:18:06.634Z,98046.13
2022-10-29T15:20:39.159Z,98052.66
2022-10-29T15:23:06.405Z,98063.56
2022-10-29T15:25:36.787Z,98047.25
2022-10-29T15:28:04.282Z,98052.94
2022-10-29T15:30:36.558Z,98053.75
2022-10-29T15:33:08.862Z,98062.16
2022-10-29T15:35:36.593Z,98035.00
2022-10-29T15:38:03.944Z,98039.59
2022-10-29T15:40:30.794Z,98043.69
2022-10-29T15:43:30.105Z,98030.31
2022-10-29T15:45:58.232Z,98026.22
2022-10-29T15:48:36.226Z,98027.53
2022-10-29T15:51:04.153Z,98051.16
2022-10-29T15:53:30.687Z,98050.31
2022-10-29T15:55:58.203Z,98039.75
2022-10-29T15:58:27.721Z,98036.72
2022-10-29T16:00:57.322Z,98040.75
2022-10-29T16:03:27.334Z,98050.78
2022-10-29T16:05:56.633Z,98038.25
2022-10-29T16:08:28.746Z,98056.22
2022-10-29T16:11:00.308Z,98073.28
2022-10-29T16:13:28.756Z,98064.75
2022-10-29T16:15:56.059Z,98074.50
2022-10-29T16:18:22.567Z,98084.50
2022-10-29T16:20:51.971Z,98070.81
2022-10-29T16:23:18.461Z,98082.81
2022-10-29T16:25:44.962Z,98072.16
2022-10-29T16:28:11.506Z,98080.66
2022-10-29T16:33:04.993Z,98083.59
2022-10-29T16:35:31.780Z,98077.28
2022-10-29T16:37:58.429Z,98079.31
2022-10-29T16:40:29.833Z,98086.75
2022-10-29T16:42:57.433Z,98074.19
2022-10-29T16:45:26.746Z,98088.63
2022-10-29T16:47:54.423Z,98081.78
2022-10-29T16:50:24.589Z,98093.94
2022-10-29T16:52:58.494Z,98080.19
2022-10-29T16:55:26.066Z,98093.53
2022-10-29T16:57:52.876Z,98103.56
2022-10-29T17:00:19.410Z,98105.41
2022-10-29T17:02:45.927Z,98107.69
2022-10-29T17:05:13.447Z,98118.25
2022-10-29T17:07:40.218Z,98102.53
2022-10-29T17:10:07.963Z,98119.22
2022-10-29T17:12:35.451Z,98108.38
2022-10-29T17:15:02.587Z,98102.38
2022-10-29T17:17:32.673Z,98111.94
2022-10-29T17:19:59.596Z,98106.16
2022-10-29T17:22:28.604Z,98103.53
2022-10-29T17:24:55.282Z,98113.47
2022-10-29T17:27:25.278Z,98115.94
2022-10-29T17:29:51.978Z,98098.47
2022-10-29T17:32:40.482Z,98114.94
2022-10-29T17:35:07.320Z,98080.41
2022-10-29T17:37:34.446Z,98089.88
2022-10-29T17:40:03.344Z,98110.19
2022-10-29T17:42:33.894Z,98111.03
2022-10-29T17:45:00.684Z,98105.88
2022-10-29T17:47:30.634Z,98107.41
2022-10-29T17:49:59.262Z,98122.66
2022-10-29T17:52:33.122Z,98136.09
2022-10-29T17:55:34.592Z,98113.38
2022-10-29T17:58:06.010Z,98080.22
2022-10-29T18:00:32.826Z,98083.03
2022-10-29T18:03:02.835Z,98125.78
2022-10-29T18:05:30.858Z,98136.91
2022-10-29T18:07:59.792Z,98137.81
2022-10-29T18:10:26.757Z,98143.78
2022-10-29T18:12:53.772Z,98127.16
2022-10-29T18:15:20.645Z,98133.94
2022-10-29T18:17:50.285Z,98129.59
2022-10-29T18:20:17.244Z,98133.69
2022-10-29T18:22:44.608Z,98144.75
2022-10-29T18:25:11.967Z,98139.84
2022-10-29T18:28:02.295Z,98135.06
2022-10-29T18:30:33.335Z,98123.09
2022-10-29T18:33:18.156Z,98099.72
2022-10-29T18:35:44.796Z,98141.25
2022-10-29T18:38:11.319Z,98123.19
2022-10-29T18:40:40.453Z,98141.41
2022-10-29T18:43:07.092Z,98150.44
2022-10-29T18:45:33.650Z,98140.34
2022-10-29T18:48:03.537Z,98144.19
2022-10-29T18:50:32.019Z,98146.63
2022-10-29T18:52:59.011Z,98105.84
2022-10-29T18:55:26.112Z,98144.19
2022-10-29T18:57:52.640Z,98131.91
2022-10-29T19:00:19.232Z,98135.53
2022-10-29T19:02:45.779Z,98136.66
2022-10-29T19:05:12.374Z,98162.75
2022-10-29T19:07:38.945Z,98135.34
2022-10-29T19:10:05.917Z,98131.47
2022-10-29T19:12:35.505Z,98147.88
2022-10-29T19:15:05.541Z,98154.75
2022-10-29T19:17:34.697Z,98155.25
2022-10-29T19:20:04.717Z,98143.19
2022-10-29T19:22:34.007Z,98153.66
2022-10-29T19:25:02.935Z,98151.28
2022-10-29T19:27:32.600Z,98151.28
2022-10-29T19:29:59.150Z,98124.22
2022-10-29T19:32:25.718Z,98165.75
2022-10-29T19:34:52.496Z,98146.03
2022-10-29T19:37:19.066Z,98147.13
2022-10-29T19:39:45.600Z,98170.88
2022-10-29T19:42:12.098Z,98168.44
2022-10-29T19:44:38.598Z,98151.53
2022-10-29T19:47:05.176Z,98156.13
2022-10-29T19:49:34.496Z,98171.81
2022-10-29T19:52:04.125Z,98151.94
2022-10-29T19:54:34.896Z,98144.41
2022-10-29T19:57:04.353Z,98159.41
2022-10-29T19:59:33.985Z,98161.88
2022-10-29T20:02:02.678Z,98164.34
2022-10-29T20:04:29.261Z,98169.84
2022-10-29T20:06:55.743Z,98155.19
2022-10-29T20:09:22.357Z,98176.28
2022-10-29T20:11:48.878Z,98162.38
2022-10-29T20:14:15.396Z,98145.16
2022-10-29T20:16:41.883Z,98171.03
2022-10-29T20:19:08.847Z,98150.75
2022-10-29T20:21:35.353Z,98163.19
2022-10-29T20:24:04.907Z,98151.09
2022-10-29T20:26:36.696Z,98143.25
2022-10-29T20:29:06.049Z,98138.09
2022-10-29T20:31:41.137Z,98163.88
2022-10-29T20:34:09.531Z,98169.25
2022-10-29T20:36:36.139Z,98143.03
2022-10-29T20:39:05.595Z,98150.03
2022-10-29T20:41:35.033Z,98144.63
2022-10-29T20:44:04.103Z,98149.69
2022-10-29T20:46:30.678Z,98151.41
2022-10-29T20:48:57.294Z,98124.22
2022-10-29T20:51:24.746Z,98163.63
2022-10-29T20:53:52.524Z,98168.97
2022-10-29T20:56:20.843Z,98173.16
2022-10-29T20:58:47.385Z,98169.31
2022-10-29T21:01:16.452Z,98176.53
2022-10-29T21:03:43.804Z,98181.34
2022-10-29T21:06:15.771Z,98179.03
2022-10-29T21:08:43.474Z,98173.16
2022-10-29T21:11:12.622Z,98186.28
2022-10-29T21:13:39.152Z,98166.81
2022-10-29T21:16:14.674Z,98191.03
2022-10-29T21:18:42.490Z,98186.13
2022-10-29T21:21:09.774Z,98186.66
2022-10-29T21:23:39.436Z,98190.06
2022-10-29T21:26:14.309Z,98202.81
2022-10-29T21:28:41.060Z,98198.22
2022-10-29T21:31:07.794Z,98202.03
2022-10-29T21:33:37.641Z,98185.13
2022-10-29T21:36:06.958Z,98201.19
2022-10-29T21:38:36.243Z,98187.22
2022-10-29T21:41:02.775Z,98194.53
2022-10-29T21:43:29.407Z,98189.78
2022-10-29T21:45:56.409Z,98169.88
2022-10-29T21:48:25.643Z,98206.69
2022-10-29T21:51:02.473Z,98204.06
2022-10-29T21:53:29.518Z,98165.94
2022-10-29T21:55:57.791Z,98185.72
2022-10-29T21:58:24.647Z,98208.44
2022-10-29T22:00:51.615Z,98197.25
2022-10-29T22:03:18.578Z,98196.34
2022-10-29T22:05:45.141Z,98189.13
2022-10-29T22:08:11.669Z,98172.16
2022-10-29T22:10:47.256Z,98198.06
2022-10-29T22:13:14.588Z,98184.25
2022-10-29T22:15:44.784Z,98185.69
2022-10-29T22:18:11.234Z,98194.03
2022-10-29T22:20:40.687Z,98190.16
2022-10-29T22:23:10.090Z,98171.19
2022-10-29T22:25:38.907Z,98167.44
2022-10-29T22:28:05.439Z,98181.03
2022-10-29T22:30:31.961Z,98159.81
2022-10-29T22:32:58.425Z,98172.81
2022-10-29T22:35:24.870Z,98167.75
2022-10-29T22:37:53.505Z,98170.34
2022-10-29T22:40:20.057Z,98177.56
2022-10-29T22:42:46.541Z,98147.50
2022-10-29T22:45:13.098Z,98137.72
2022-10-29T22:47:40.983Z,98167.13
2022-10-29T22:50:10.101Z,98143.38
2022-10-29T22:52:36.689Z,98137.72
2022-10-29T22:55:03.528Z,98155.06
2022-10-29T22:57:30.037Z,98134.66
2022-10-29T22:59:56.600Z,98149.28
2022-10-29T23:02:23.161Z,98148.41
2022-10-29T23:04:49.719Z,98125.19
2022-10-29T23:07:16.272Z,98107.03
2022-10-29T23:09:42.755Z,98129.66
2022-10-29T23:12:11.339Z,98131.53
2022-10-29T23:14:37.845Z,98111.19
2022-10-29T23:17:04.377Z,98127.31
2022-10-29T23:19:30.983Z,98124.19
2022-10-29T23:21:57.542Z,98115.16
2022-10-29T23:24:24.083Z,98127.16
2022-10-29T23:26:50.643Z,98114.44
2022-10-29T23:29:17.144Z,98121.78
2022-10-29T23:31:43.664Z,98109.38
2022-10-29T23:34:14.359Z,98122.44
2022-10-29T23:36:42.996Z,98115.41
2022-10-29T23:39:09.719Z,98104.94
2022-10-29T23:41:36.210Z,98118.53
2022-10-29T23:44:02.755Z,98111.38
2022-10-29T23:46:29.270Z,98097.75
2022-10-29T23:48:55.900Z,98110.38
2022-10-29T23:51:22.558Z,98083.44
2022-10-29T23:53:51.676Z,98106.84
2022-10-29T23:56:21.357Z,98110.91
2022-10-29T23:58:47.944Z,98119.13
